sensor_id;sensor_type;location;lat;lon;timestamp;temperature;humidity
18779;DHT22;9518;51.720;14.384;2023-02-28T00:00:37;-1.20;1.00
18779;DHT22;9518;51.720;14.384;2023-02-28T00:03:05;-1.20;1.00
18779;DHT22;9518;51.720;14.384;2023-02-28T00:05:33;-1.20;1.00
18779;DHT22;9518;51.720;14.384;2023-02-28T00:08:02;-1.20;99.90
18779;DHT22;9518;51.720;14.384;2023-02-28T00:10:30;-1.20;99.90
18779;DHT22;9518;51.720;14.384;2023-02-28T00:13:03;-1.20;99.90
18779;DHT22;9518;51.720;14.384;2023-02-28T00:15:31;-1.20;99.90
18779;DHT22;9518;51.720;14.384;2023-02-28T00:17:58;-1.20;1.00
18779;DHT22;9518;51.720;14.384;2023-02-28T00:20:25;-1.10;1.00
18779;DHT22;9518;51.720;14.384;2023-02-28T00:22:53;-1.10;9.70
18779;DHT22;9518;51.720;14.384;2023-02-28T00:25:22;-1.10;1.00
18779;DHT22;9518;51.720;14.384;2023-02-28T00:27:50;-1.10;1.00
18779;DHT22;9518;51.720;14.384;2023-02-28T00:30:19;-1.10;99.90
18779;DHT22;9518;51.720;14.384;2023-02-28T00:32:47;-1.20;1.00
18779;DHT22;9518;51.720;14.384;2023-02-28T00:35:14;-1.20;99.90
18779;DHT22;9518;51.720;14.384;2023-02-28T00:37:41;-1.20;99.90
18779;DHT22;9518;51.720;14.384;2023-02-28T00:40:10;-1.20;99.90
18779;DHT22;9518;51.720;14.384;2023-02-28T00:42:38;-1.20;1.00
18779;DHT22;9518;51.720;14.384;2023-02-28T00:45:06;-1.20;1.00
18779;DHT22;9518;51.720;14.384;2023-02-28T00:47:35;-1.20;1.00
18779;DHT22;9518;51.720;14.384;2023-02-28T00:50:02;-1.20;1.00
18779;DHT22;9518;51.720;14.384;2023-02-28T00:52:30;-1.30;99.90
18779;DHT22;9518;51.720;14.384;2023-02-28T00:54:57;-1.30;99.90
18779;DHT22;9518;51.720;14.384;2023-02-28T00:57:24;-1.20;1.00
18779;DHT22;9518;51.720;14.384;2023-02-28T00:59:51;-1.20;99.90
18779;DHT22;9518;51.720;14.384;2023-02-28T01:02:20;-1.20;86.00
18779;DHT22;9518;51.720;14.384;2023-02-28T01:04:48;-1.20;1.00
18779;DHT22;9518;51.720;14.384;2023-02-28T01:07:15;-1.30;1.00
18779;DHT22;9518;51.720;14.384;2023-02-28T01:09:42;-1.20;1.00
18779;DHT22;9518;51.720;14.384;2023-02-28T01:12:09;-1.30;1.00
18779;DHT22;9518;51.720;14.384;2023-02-28T01:14:36;-1.30;99.90
18779;DHT22;9518;51.720;14.384;2023-02-28T01:17:04;-1.30;99.90
18779;DHT22;9518;51.720;14.384;2023-02-28T01:19:35;-1.30;1.00
18779;DHT22;9518;51.720;14.384;2023-02-28T01:22:05;-1.30;99.90
18779;DHT22;9518;51.720;14.384;2023-02-28T01:24:33;-1.30;1.00
18779;DHT22;9518;51.720;14.384;2023-02-28T01:27:00;-1.30;1.00
18779;DHT22;9518;51.720;14.384;2023-02-28T01:29:27;-1.20;29.30
18779;DHT22;9518;51.720;14.384;2023-02-28T01:31:54;-1.30;1.00
18779;DHT22;9518;51.720;14.384;2023-02-28T01:34:22;-1.30;68.10
18779;DHT22;9518;51.720;14.384;2023-02-28T01:36:49;-1.20;1.00
18779;DHT22;9518;51.720;14.384;2023-02-28T01:39:18;-1.20;1.00
18779;DHT22;9518;51.720;14.384;2023-02-28T01:41:45;-1.20;1.00
18779;DHT22;9518;51.720;14.384;2023-02-28T01:47:16;-1.10;1.00
18779;DHT22;9518;51.720;14.384;2023-02-28T01:49:43;-1.10;1.00
18779;DHT22;9518;51.720;14.384;2023-02-28T01:52:11;-1.10;1.00
18779;DHT22;9518;51.720;14.384;2023-02-28T01:54:41;-1.10;99.90
18779;DHT22;9518;51.720;14.384;2023-02-28T01:57:15;-1.10;1.00
18779;DHT22;9518;51.720;14.384;2023-02-28T01:59:52;-1.20;1.00
18779;DHT22;9518;51.720;14.384;2023-02-28T02:02:21;-1.30;1.00
18779;DHT22;9518;51.720;14.384;2023-02-28T02:04:53;-1.30;1.00
18779;DHT22;9518;51.720;14.384;2023-02-28T02:07:21;-1.40;1.00
18779;DHT22;9518;51.720;14.384;2023-02-28T02:09:59;-1.50;1.00
18779;DHT22;9518;51.720;14.384;2023-02-28T02:12:33;-1.70;1.00
18779;DHT22;9518;51.720;14.384;2023-02-28T02:15:11;-1.80;99.90
18779;DHT22;9518;51.720;14.384;2023-02-28T02:17:42;-1.90;99.90
18779;DHT22;9518;51.720;14.384;2023-02-28T02:29:52;-1.80;1.00
18779;DHT22;9518;51.720;14.384;2023-02-28T02:35:32;-2.00;99.90
18779;DHT22;9518;51.720;14.384;2023-02-28T02:38:06;-2.00;99.90
18779;DHT22;9518;51.720;14.384;2023-02-28T02:40:37;-2.10;99.90
18779;DHT22;9518;51.720;14.384;2023-02-28T02:43:10;-2.30;1.00
18779;DHT22;9518;51.720;14.384;2023-02-28T02:45:42;-2.40;99.90
18779;DHT22;9518;51.720;14.384;2023-02-28T02:48:13;-2.50;1.00
18779;DHT22;9518;51.720;14.384;2023-02-28T02:50:46;-2.60;1.00
18779;DHT22;9518;51.720;14.384;2023-02-28T02:53:18;-2.60;1.00
18779;DHT22;9518;51.720;14.384;2023-02-28T02:55:49;-2.60;1.00
18779;DHT22;9518;51.720;14.384;2023-02-28T02:58:24;-2.60;1.00
18779;DHT22;9518;51.720;14.384;2023-02-28T03:00:54;-2.70;1.00
18779;DHT22;9518;51.720;14.384;2023-02-28T03:03:22;-2.80;1.00
18779;DHT22;9518;51.720;14.384;2023-02-28T03:05:57;-2.80;8.00
18779;DHT22;9518;51.720;14.384;2023-02-28T03:08:25;-2.90;1.00
18779;DHT22;9518;51.720;14.384;2023-02-28T03:10:56;-2.90;1.00
18779;DHT22;9518;51.720;14.384;2023-02-28T03:13:52;-3.00;1.00
18779;DHT22;9518;51.720;14.384;2023-02-28T03:19:30;-3.10;6.10
18779;DHT22;9518;51.720;14.384;2023-02-28T03:22:18;-3.20;18.80
18779;DHT22;9518;51.720;14.384;2023-02-28T03:24:50;-3.00;64.90
18779;DHT22;9518;51.720;14.384;2023-02-28T03:27:24;-3.10;7.00
18779;DHT22;9518;51.720;14.384;2023-02-28T03:29:58;-3.20;1.00
18779;DHT22;9518;51.720;14.384;2023-02-28T03:32:32;-3.50;1.00
18779;DHT22;9518;51.720;14.384;2023-02-28T03:35:04;-3.70;1.00
18779;DHT22;9518;51.720;14.384;2023-02-28T03:37:40;-3.80;1.00
18779;DHT22;9518;51.720;14.384;2023-02-28T03:40:11;-3.90;1.00
18779;DHT22;9518;51.720;14.384;2023-02-28T03:42:45;-4.00;3.60
18779;DHT22;9518;51.720;14.384;2023-02-28T03:45:16;-4.00;99.90
18779;DHT22;9518;51.720;14.384;2023-02-28T03:47:48;-3.80;99.90
18779;DHT22;9518;51.720;14.384;2023-02-28T03:50:20;-3.90;99.90
18779;DHT22;9518;51.720;14.384;2023-02-28T03:52:57;-3.90;99.90
18779;DHT22;9518;51.720;14.384;2023-02-28T03:55:28;-4.00;99.90
18779;DHT22;9518;51.720;14.384;2023-02-28T03:58:01;-4.10;99.90
18779;DHT22;9518;51.720;14.384;2023-02-28T04:00:31;-4.30;99.90
18779;DHT22;9518;51.720;14.384;2023-02-28T04:03:00;-4.40;99.90
18779;DHT22;9518;51.720;14.384;2023-02-28T04:05:28;-4.50;99.90
18779;DHT22;9518;51.720;14.384;2023-02-28T04:08:04;-4.60;99.90
18779;DHT22;9518;51.720;14.384;2023-02-28T04:10:32;-4.60;99.90
18779;DHT22;9518;51.720;14.384;2023-02-28T04:12:59;-4.50;99.90
18779;DHT22;9518;51.720;14.384;2023-02-28T04:15:26;-4.50;99.90
18779;DHT22;9518;51.720;14.384;2023-02-28T04:17:53;-4.60;99.90
18779;DHT22;9518;51.720;14.384;2023-02-28T04:20:20;-4.80;99.90
18779;DHT22;9518;51.720;14.384;2023-02-28T04:22:47;-4.80;99.90
18779;DHT22;9518;51.720;14.384;2023-02-28T04:25:15;-4.90;99.90
18779;DHT22;9518;51.720;14.384;2023-02-28T04:27:42;-4.80;99.90
18779;DHT22;9518;51.720;14.384;2023-02-28T04:30:11;-4.60;99.90
18779;DHT22;9518;51.720;14.384;2023-02-28T04:32:38;-4.60;99.90
18779;DHT22;9518;51.720;14.384;2023-02-28T04:35:06;-4.60;99.90
18779;DHT22;9518;51.720;14.384;2023-02-28T04:37:33;-4.60;99.90
18779;DHT22;9518;51.720;14.384;2023-02-28T04:40:03;-4.70;99.90
18779;DHT22;9518;51.720;14.384;2023-02-28T04:42:32;-4.80;99.90
18779;DHT22;9518;51.720;14.384;2023-02-28T04:45:03;-4.80;99.90
18779;DHT22;9518;51.720;14.384;2023-02-28T04:47:30;-4.80;99.90
18779;DHT22;9518;51.720;14.384;2023-02-28T04:49:58;-4.90;99.90
18779;DHT22;9518;51.720;14.384;2023-02-28T04:52:27;-4.90;99.90
18779;DHT22;9518;51.720;14.384;2023-02-28T04:54:54;-4.80;99.90
18779;DHT22;9518;51.720;14.384;2023-02-28T04:57:21;-4.80;99.90
18779;DHT22;9518;51.720;14.384;2023-02-28T04:59:50;-5.00;99.90
18779;DHT22;9518;51.720;14.384;2023-02-28T05:02:17;-5.10;99.90
18779;DHT22;9518;51.720;14.384;2023-02-28T05:04:45;-5.10;99.90
18779;DHT22;9518;51.720;14.384;2023-02-28T05:07:12;-5.20;99.90
18779;DHT22;9518;51.720;14.384;2023-02-28T05:09:40;-5.20;99.90
18779;DHT22;9518;51.720;14.384;2023-02-28T05:12:08;-5.30;99.90
18779;DHT22;9518;51.720;14.384;2023-02-28T05:14:36;-5.10;99.90
18779;DHT22;9518;51.720;14.384;2023-02-28T05:17:05;-5.10;99.90
18779;DHT22;9518;51.720;14.384;2023-02-28T05:19:32;-5.00;99.90
18779;DHT22;9518;51.720;14.384;2023-02-28T05:21:59;-5.10;99.90
18779;DHT22;9518;51.720;14.384;2023-02-28T05:24:29;-5.10;99.90
18779;DHT22;9518;51.720;14.384;2023-02-28T05:26:56;-5.20;99.90
18779;DHT22;9518;51.720;14.384;2023-02-28T05:29:24;-5.30;99.90
18779;DHT22;9518;51.720;14.384;2023-02-28T05:31:52;-5.30;99.90
18779;DHT22;9518;51.720;14.384;2023-02-28T05:34:21;-5.30;99.90
18779;DHT22;9518;51.720;14.384;2023-02-28T05:36:48;-5.40;99.90
18779;DHT22;9518;51.720;14.384;2023-02-28T05:39:15;-5.40;99.90
18779;DHT22;9518;51.720;14.384;2023-02-28T05:41:43;-5.50;99.90
18779;DHT22;9518;51.720;14.384;2023-02-28T05:44:10;-5.50;99.90
18779;DHT22;9518;51.720;14.384;2023-02-28T05:46:37;-5.50;99.90
18779;DHT22;9518;51.720;14.384;2023-02-28T05:49:05;-5.50;99.90
18779;DHT22;9518;51.720;14.384;2023-02-28T05:51:34;-5.50;99.90
18779;DHT22;9518;51.720;14.384;2023-02-28T05:54:05;-5.50;99.90
18779;DHT22;9518;51.720;14.384;2023-02-28T05:56:32;-5.60;99.90
18779;DHT22;9518;51.720;14.384;2023-02-28T05:59:00;-5.60;99.90
18779;DHT22;9518;51.720;14.384;2023-02-28T06:01:32;-5.70;99.90
18779;DHT22;9518;51.720;14.384;2023-02-28T06:04:00;-5.60;99.90
18779;DHT22;9518;51.720;14.384;2023-02-28T06:06:28;-5.50;99.90
18779;DHT22;9518;51.720;14.384;2023-02-28T06:08:57;-5.40;99.90
18779;DHT22;9518;51.720;14.384;2023-02-28T06:11:24;-5.10;99.90
18779;DHT22;9518;51.720;14.384;2023-02-28T06:13:53;-5.00;99.90
18779;DHT22;9518;51.720;14.384;2023-02-28T06:16:21;-4.90;99.90
18779;DHT22;9518;51.720;14.384;2023-02-28T06:18:50;-4.80;99.90
18779;DHT22;9518;51.720;14.384;2023-02-28T06:21:18;-4.70;99.90
18779;DHT22;9518;51.720;14.384;2023-02-28T06:23:45;-4.60;99.90
18779;DHT22;9518;51.720;14.384;2023-02-28T06:26:14;-4.40;99.90
18779;DHT22;9518;51.720;14.384;2023-02-28T06:28:41;-4.20;99.90
18779;DHT22;9518;51.720;14.384;2023-02-28T06:31:09;-4.00;99.90
18779;DHT22;9518;51.720;14.384;2023-02-28T06:33:38;-3.80;99.90
18779;DHT22;9518;51.720;14.384;2023-02-28T06:36:07;-3.60;99.90
18779;DHT22;9518;51.720;14.384;2023-02-28T06:38:35;-3.40;99.90
18779;DHT22;9518;51.720;14.384;2023-02-28T06:41:02;-3.30;99.90
18779;DHT22;9518;51.720;14.384;2023-02-28T06:43:33;-3.20;99.90
18779;DHT22;9518;51.720;14.384;2023-02-28T06:46:03;-3.00;99.90
18779;DHT22;9518;51.720;14.384;2023-02-28T06:48:31;-2.80;99.90
18779;DHT22;9518;51.720;14.384;2023-02-28T06:51:02;-2.70;99.90
18779;DHT22;9518;51.720;14.384;2023-02-28T06:53:29;-2.60;99.90
18779;DHT22;9518;51.720;14.384;2023-02-28T06:55:58;-2.50;99.90
18779;DHT22;9518;51.720;14.384;2023-02-28T06:58:26;-2.50;99.90
18779;DHT22;9518;51.720;14.384;2023-02-28T07:00:54;-2.40;99.90
18779;DHT22;9518;51.720;14.384;2023-02-28T07:03:22;-2.30;99.90
18779;DHT22;9518;51.720;14.384;2023-02-28T07:05:49;-2.30;99.90
18779;DHT22;9518;51.720;14.384;2023-02-28T07:08:16;-2.20;99.90
18779;DHT22;9518;51.720;14.384;2023-02-28T07:10:44;-2.10;99.90
18779;DHT22;9518;51.720;14.384;2023-02-28T07:13:11;-1.90;99.90
18779;DHT22;9518;51.720;14.384;2023-02-28T07:15:38;-1.80;99.90
18779;DHT22;9518;51.720;14.384;2023-02-28T07:18:07;-1.80;99.90
18779;DHT22;9518;51.720;14.384;2023-02-28T07:20:34;-1.70;99.90
18779;DHT22;9518;51.720;14.384;2023-02-28T07:23:01;-1.50;99.90
18779;DHT22;9518;51.720;14.384;2023-02-28T07:25:29;-1.30;99.90
18779;DHT22;9518;51.720;14.384;2023-02-28T07:27:57;-1.20;99.90
18779;DHT22;9518;51.720;14.384;2023-02-28T07:30:35;-1.10;99.90
18779;DHT22;9518;51.720;14.384;2023-02-28T07:33:02;-1.00;99.90
18779;DHT22;9518;51.720;14.384;2023-02-28T07:35:31;-0.90;99.90
18779;DHT22;9518;51.720;14.384;2023-02-28T07:37:59;-0.90;99.90
18779;DHT22;9518;51.720;14.384;2023-02-28T07:40:30;-0.80;99.90
18779;DHT22;9518;51.720;14.384;2023-02-28T07:42:59;-0.80;99.90
18779;DHT22;9518;51.720;14.384;2023-02-28T07:45:26;-0.70;99.90
18779;DHT22;9518;51.720;14.384;2023-02-28T07:47:54;-0.70;99.90
18779;DHT22;9518;51.720;14.384;2023-02-28T07:50:22;-0.70;99.90
18779;DHT22;9518;51.720;14.384;2023-02-28T07:52:51;-0.70;99.90
18779;DHT22;9518;51.720;14.384;2023-02-28T07:55:18;-0.80;99.90
18779;DHT22;9518;51.720;14.384;2023-02-28T07:57:46;-0.80;99.90
18779;DHT22;9518;51.720;14.384;2023-02-28T08:00:13;-0.90;99.90
18779;DHT22;9518;51.720;14.384;2023-02-28T08:02:41;-1.00;99.90
18779;DHT22;9518;51.720;14.384;2023-02-28T08:05:08;-0.90;85.60
18779;DHT22;9518;51.720;14.384;2023-02-28T08:07:37;-0.90;1.00
18779;DHT22;9518;51.720;14.384;2023-02-28T08:10:08;-0.90;1.00
18779;DHT22;9518;51.720;14.384;2023-02-28T08:12:35;-0.90;1.00
18779;DHT22;9518;51.720;14.384;2023-02-28T08:15:03;-0.90;1.00
18779;DHT22;9518;51.720;14.384;2023-02-28T08:17:30;-0.80;1.00
18779;DHT22;9518;51.720;14.384;2023-02-28T08:19:57;-0.50;99.90
18779;DHT22;9518;51.720;14.384;2023-02-28T08:22:25;-0.40;1.00
18779;DHT22;9518;51.720;14.384;2023-02-28T08:24:52;-0.20;1.00
18779;DHT22;9518;51.720;14.384;2023-02-28T08:27:20;0.00;1.00
18779;DHT22;9518;51.720;14.384;2023-02-28T08:29:47;0.20;99.90
18779;DHT22;9518;51.720;14.384;2023-02-28T08:32:14;0.30;1.00
18779;DHT22;9518;51.720;14.384;2023-02-28T08:34:41;0.40;1.00
18779;DHT22;9518;51.720;14.384;2023-02-28T08:37:09;0.60;1.00
18779;DHT22;9518;51.720;14.384;2023-02-28T08:39:36;0.80;1.00
18779;DHT22;9518;51.720;14.384;2023-02-28T08:42:04;1.00;1.00
18779;DHT22;9518;51.720;14.384;2023-02-28T08:44:33;1.20;99.90
18779;DHT22;9518;51.720;14.384;2023-02-28T08:47:00;1.40;1.00
18779;DHT22;9518;51.720;14.384;2023-02-28T08:49:27;1.60;1.00
18779;DHT22;9518;51.720;14.384;2023-02-28T08:51:54;1.80;1.00
18779;DHT22;9518;51.720;14.384;2023-02-28T08:54:22;1.90;1.00
18779;DHT22;9518;51.720;14.384;2023-02-28T08:56:50;2.10;1.00
18779;DHT22;9518;51.720;14.384;2023-02-28T08:59:17;2.30;1.00
18779;DHT22;9518;51.720;14.384;2023-02-28T09:01:46;2.50;1.00
18779;DHT22;9518;51.720;14.384;2023-02-28T09:04:14;2.60;99.90
18779;DHT22;9518;51.720;14.384;2023-02-28T09:06:41;2.80;99.90
18779;DHT22;9518;51.720;14.384;2023-02-28T09:09:10;2.80;99.90
18779;DHT22;9518;51.720;14.384;2023-02-28T09:11:37;2.90;99.90
18779;DHT22;9518;51.720;14.384;2023-02-28T09:14:04;3.00;96.50
18779;DHT22;9518;51.720;14.384;2023-02-28T09:16:32;3.20;99.90
18779;DHT22;9518;51.720;14.384;2023-02-28T09:19:01;3.20;92.20
18779;DHT22;9518;51.720;14.384;2023-02-28T09:21:28;3.30;74.60
18779;DHT22;9518;51.720;14.384;2023-02-28T09:23:55;3.50;82.40
18779;DHT22;9518;51.720;14.384;2023-02-28T09:26:24;3.60;55.00
18779;DHT22;9518;51.720;14.384;2023-02-28T09:28:54;3.60;32.20
18779;DHT22;9518;51.720;14.384;2023-02-28T09:31:23;3.70;27.10
18779;DHT22;9518;51.720;14.384;2023-02-28T09:33:52;3.80;1.00
18779;DHT22;9518;51.720;14.384;2023-02-28T09:36:21;3.80;1.00
18779;DHT22;9518;51.720;14.384;2023-02-28T09:38:49;3.80;1.00
18779;DHT22;9518;51.720;14.384;2023-02-28T09:41:20;3.60;1.00
18779;DHT22;9518;51.720;14.384;2023-02-28T09:44:17;3.70;1.00
18779;DHT22;9518;51.720;14.384;2023-02-28T09:47:04;3.80;1.00
18779;DHT22;9518;51.720;14.384;2023-02-28T09:49:38;4.00;1.00
18779;DHT22;9518;51.720;14.384;2023-02-28T09:52:10;4.10;1.00
18779;DHT22;9518;51.720;14.384;2023-02-28T09:54:39;3.80;1.00
18779;DHT22;9518;51.720;14.384;2023-02-28T09:57:08;3.50;1.00
18779;DHT22;9518;51.720;14.384;2023-02-28T09:59:49;3.50;1.00
18779;DHT22;9518;51.720;14.384;2023-02-28T10:02:41;3.40;1.00
18779;DHT22;9518;51.720;14.384;2023-02-28T10:05:19;3.60;1.00
18779;DHT22;9518;51.720;14.384;2023-02-28T10:08:02;4.00;1.00
18779;DHT22;9518;51.720;14.384;2023-02-28T10:10:37;4.20;1.00
18779;DHT22;9518;51.720;14.384;2023-02-28T10:13:13;4.40;1.00
18779;DHT22;9518;51.720;14.384;2023-02-28T10:15:42;4.60;1.00
18779;DHT22;9518;51.720;14.384;2023-02-28T10:18:16;4.90;1.00
18779;DHT22;9518;51.720;14.384;2023-02-28T10:20:47;5.20;1.00
18779;DHT22;9518;51.720;14.384;2023-02-28T10:23:21;5.10;1.00
18779;DHT22;9518;51.720;14.384;2023-02-28T10:25:54;5.00;1.00
18779;DHT22;9518;51.720;14.384;2023-02-28T10:28:22;4.90;1.00
18779;DHT22;9518;51.720;14.384;2023-02-28T10:30:51;4.50;1.00
18779;DHT22;9518;51.720;14.384;2023-02-28T10:33:22;4.50;1.00
18779;DHT22;9518;51.720;14.384;2023-02-28T10:35:50;4.40;1.00
18779;DHT22;9518;51.720;14.384;2023-02-28T10:38:22;4.60;1.00
18779;DHT22;9518;51.720;14.384;2023-02-28T10:40:50;4.70;1.00
18779;DHT22;9518;51.720;14.384;2023-02-28T10:43:22;4.80;1.00
18779;DHT22;9518;51.720;14.384;2023-02-28T10:46:04;5.20;1.00
18779;DHT22;9518;51.720;14.384;2023-02-28T10:48:37;5.30;1.00
18779;DHT22;9518;51.720;14.384;2023-02-28T10:51:06;5.50;1.00
18779;DHT22;9518;51.720;14.384;2023-02-28T10:53:48;5.70;1.00
18779;DHT22;9518;51.720;14.384;2023-02-28T10:56:17;6.10;1.00
18779;DHT22;9518;51.720;14.384;2023-02-28T10:58:49;6.30;1.00
18779;DHT22;9518;51.720;14.384;2023-02-28T11:01:19;6.20;1.00
18779;DHT22;9518;51.720;14.384;2023-02-28T11:03:47;6.30;1.00
18779;DHT22;9518;51.720;14.384;2023-02-28T11:06:17;7.00;1.00
18779;DHT22;9518;51.720;14.384;2023-02-28T11:08:49;6.90;1.00
18779;DHT22;9518;51.720;14.384;2023-02-28T11:11:20;6.90;1.00
18779;DHT22;9518;51.720;14.384;2023-02-28T11:13:51;6.90;1.00
18779;DHT22;9518;51.720;14.384;2023-02-28T11:16:19;7.20;1.00
18779;DHT22;9518;51.720;14.384;2023-02-28T11:18:49;7.30;1.00
18779;DHT22;9518;51.720;14.384;2023-02-28T11:21:23;7.40;1.00
18779;DHT22;9518;51.720;14.384;2023-02-28T11:24:01;7.50;1.00
18779;DHT22;9518;51.720;14.384;2023-02-28T11:26:36;7.90;1.00
18779;DHT22;9518;51.720;14.384;2023-02-28T11:29:11;7.70;1.00
18779;DHT22;9518;51.720;14.384;2023-02-28T11:31:39;7.70;1.00
18779;DHT22;9518;51.720;14.384;2023-02-28T11:34:24;7.80;1.00
18779;DHT22;9518;51.720;14.384;2023-02-28T11:36:54;8.10;1.00
18779;DHT22;9518;51.720;14.384;2023-02-28T11:39:26;8.30;1.00
18779;DHT22;9518;51.720;14.384;2023-02-28T11:42:24;8.40;1.00
18779;DHT22;9518;51.720;14.384;2023-02-28T11:45:07;8.30;1.00
18779;DHT22;9518;51.720;14.384;2023-02-28T11:47:47;8.70;1.00
18779;DHT22;9518;51.720;14.384;2023-02-28T11:50:34;9.20;1.00
18779;DHT22;9518;51.720;14.384;2023-02-28T11:53:14;9.20;1.00
18779;DHT22;9518;51.720;14.384;2023-02-28T11:55:49;9.30;1.00
18779;DHT22;9518;51.720;14.384;2023-02-28T11:58:44;9.40;1.00
18779;DHT22;9518;51.720;14.384;2023-02-28T12:01:30;9.50;1.00
18779;DHT22;9518;51.720;14.384;2023-02-28T12:04:13;9.00;1.00
18779;DHT22;9518;51.720;14.384;2023-02-28T12:06:47;8.90;1.00
18779;DHT22;9518;51.720;14.384;2023-02-28T12:12:23;9.20;1.00
18779;DHT22;9518;51.720;14.384;2023-02-28T12:15:24;8.80;1.00
18779;DHT22;9518;51.720;14.384;2023-02-28T12:18:06;9.10;1.00
18779;DHT22;9518;51.720;14.384;2023-02-28T12:20:41;9.50;1.00
18779;DHT22;9518;51.720;14.384;2023-02-28T12:23:35;10.10;1.00
18779;DHT22;9518;51.720;14.384;2023-02-28T12:26:16;10.40;1.00
18779;DHT22;9518;51.720;14.384;2023-02-28T12:28:50;10.10;1.00
18779;DHT22;9518;51.720;14.384;2023-02-28T12:31:22;10.00;1.00
18779;DHT22;9518;51.720;14.384;2023-02-28T12:33:52;10.40;1.00
18779;DHT22;9518;51.720;14.384;2023-02-28T12:36:21;10.30;1.00
18779;DHT22;9518;51.720;14.384;2023-02-28T12:38:53;10.50;1.00
18779;DHT22;9518;51.720;14.384;2023-02-28T12:41:27;11.20;1.00
18779;DHT22;9518;51.720;14.384;2023-02-28T12:44:01;11.10;1.00
18779;DHT22;9518;51.720;14.384;2023-02-28T12:46:32;11.30;1.00
18779;DHT22;9518;51.720;14.384;2023-02-28T12:49:04;11.00;1.00
18779;DHT22;9518;51.720;14.384;2023-02-28T12:51:34;10.80;1.00
18779;DHT22;9518;51.720;14.384;2023-02-28T12:54:10;10.70;1.00
18779;DHT22;9518;51.720;14.384;2023-02-28T12:56:45;11.20;1.00
18779;DHT22;9518;51.720;14.384;2023-02-28T12:59:23;11.50;1.00
18779;DHT22;9518;51.720;14.384;2023-02-28T13:05:19;11.90;1.00
18779;DHT22;9518;51.720;14.384;2023-02-28T13:08:09;12.20;1.00
18779;DHT22;9518;51.720;14.384;2023-02-28T13:10:44;12.40;1.00
18779;DHT22;9518;51.720;14.384;2023-02-28T13:13:16;12.10;1.00
18779;DHT22;9518;51.720;14.384;2023-02-28T13:16:00;11.40;1.00
18779;DHT22;9518;51.720;14.384;2023-02-28T13:18:33;11.10;1.00
18779;DHT22;9518;51.720;14.384;2023-02-28T13:21:03;11.80;1.00
18779;DHT22;9518;51.720;14.384;2023-02-28T13:24:03;12.50;1.00
18779;DHT22;9518;51.720;14.384;2023-02-28T13:29:54;11.30;1.00
18779;DHT22;9518;51.720;14.384;2023-02-28T13:32:36;11.60;1.00
18779;DHT22;9518;51.720;14.384;2023-02-28T13:35:38;12.10;1.00
18779;DHT22;9518;51.720;14.384;2023-02-28T13:38:17;12.50;1.00
18779;DHT22;9518;51.720;14.384;2023-02-28T13:40:48;13.30;1.00
18779;DHT22;9518;51.720;14.384;2023-02-28T13:43:17;13.20;1.00
18779;DHT22;9518;51.720;14.384;2023-02-28T13:46:10;12.50;1.00
18779;DHT22;9518;51.720;14.384;2023-02-28T13:48:49;12.50;1.00
18779;DHT22;9518;51.720;14.384;2023-02-28T13:51:49;13.40;1.00
18779;DHT22;9518;51.720;14.384;2023-02-28T13:54:28;13.80;1.00
18779;DHT22;9518;51.720;14.384;2023-02-28T13:57:08;13.30;1.00
18779;DHT22;9518;51.720;14.384;2023-02-28T13:59:46;13.90;1.00
18779;DHT22;9518;51.720;14.384;2023-02-28T14:02:49;14.30;1.00
18779;DHT22;9518;51.720;14.384;2023-02-28T14:05:36;14.60;1.00
18779;DHT22;9518;51.720;14.384;2023-02-28T14:08:06;14.20;1.00
18779;DHT22;9518;51.720;14.384;2023-02-28T14:10:43;14.30;1.00
18779;DHT22;9518;51.720;14.384;2023-02-28T14:13:38;13.80;1.00
18779;DHT22;9518;51.720;14.384;2023-02-28T14:16:11;14.20;1.00
18779;DHT22;9518;51.720;14.384;2023-02-28T14:18:42;14.50;1.00
18779;DHT22;9518;51.720;14.384;2023-02-28T14:21:16;14.70;1.00
18779;DHT22;9518;51.720;14.384;2023-02-28T14:24:21;15.00;1.00
18779;DHT22;9518;51.720;14.384;2023-02-28T14:27:08;15.10;1.00
18779;DHT22;9518;51.720;14.384;2023-02-28T14:32:35;13.50;1.00
18779;DHT22;9518;51.720;14.384;2023-02-28T14:35:16;14.00;1.00
18779;DHT22;9518;51.720;14.384;2023-02-28T14:37:48;13.60;1.00
18779;DHT22;9518;51.720;14.384;2023-02-28T14:40:19;13.30;1.00
18779;DHT22;9518;51.720;14.384;2023-02-28T14:42:55;13.30;1.00
18779;DHT22;9518;51.720;14.384;2023-02-28T14:45:28;13.40;1.00
18779;DHT22;9518;51.720;14.384;2023-02-28T14:47:57;13.30;1.00
18779;DHT22;9518;51.720;14.384;2023-02-28T14:50:29;13.10;1.00
18779;DHT22;9518;51.720;14.384;2023-02-28T14:52:58;13.30;1.00
18779;DHT22;9518;51.720;14.384;2023-02-28T14:55:27;13.50;1.00
18779;DHT22;9518;51.720;14.384;2023-02-28T14:57:56;13.40;1.00
18779;DHT22;9518;51.720;14.384;2023-02-28T15:00:25;13.10;1.00
18779;DHT22;9518;51.720;14.384;2023-02-28T15:03:18;12.40;1.00
18779;DHT22;9518;51.720;14.384;2023-02-28T15:05:52;12.10;1.00
18779;DHT22;9518;51.720;14.384;2023-02-28T15:08:21;11.50;1.00
18779;DHT22;9518;51.720;14.384;2023-02-28T15:10:54;10.70;1.00
18779;DHT22;9518;51.720;14.384;2023-02-28T15:13:22;9.70;1.00
18779;DHT22;9518;51.720;14.384;2023-02-28T15:15:52;8.80;1.00
18779;DHT22;9518;51.720;14.384;2023-02-28T15:18:27;8.00;1.00
18779;DHT22;9518;51.720;14.384;2023-02-28T15:20:58;7.50;1.00
18779;DHT22;9518;51.720;14.384;2023-02-28T15:23:27;6.90;1.00
18779;DHT22;9518;51.720;14.384;2023-02-28T15:25:55;6.40;1.00
18779;DHT22;9518;51.720;14.384;2023-02-28T15:28:24;6.10;1.00
18779;DHT22;9518;51.720;14.384;2023-02-28T15:30:55;5.70;1.00
18779;DHT22;9518;51.720;14.384;2023-02-28T15:33:24;5.40;1.00
18779;DHT22;9518;51.720;14.384;2023-02-28T15:36:02;5.20;1.00
18779;DHT22;9518;51.720;14.384;2023-02-28T15:38:34;5.00;1.00
18779;DHT22;9518;51.720;14.384;2023-02-28T15:41:01;4.80;1.00
18779;DHT22;9518;51.720;14.384;2023-02-28T15:43:34;4.70;1.00
18779;DHT22;9518;51.720;14.384;2023-02-28T15:46:04;4.50;1.00
18779;DHT22;9518;51.720;14.384;2023-02-28T15:48:34;4.40;1.00
18779;DHT22;9518;51.720;14.384;2023-02-28T15:51:06;4.30;1.00
18779;DHT22;9518;51.720;14.384;2023-02-28T15:53:37;4.20;1.00
18779;DHT22;9518;51.720;14.384;2023-02-28T15:56:18;4.10;1.00
18779;DHT22;9518;51.720;14.384;2023-02-28T15:58:47;4.00;1.00
18779;DHT22;9518;51.720;14.384;2023-02-28T16:01:20;3.80;1.00
18779;DHT22;9518;51.720;14.384;2023-02-28T16:04:05;3.70;1.00
18779;DHT22;9518;51.720;14.384;2023-02-28T16:06:36;3.60;1.00
18779;DHT22;9518;51.720;14.384;2023-02-28T16:09:08;3.40;1.00
18779;DHT22;9518;51.720;14.384;2023-02-28T16:11:38;3.20;1.00
18779;DHT22;9518;51.720;14.384;2023-02-28T16:14:09;3.10;1.00
18779;DHT22;9518;51.720;14.384;2023-02-28T16:16:42;3.10;1.00
18779;DHT22;9518;51.720;14.384;2023-02-28T16:19:09;3.00;1.00
18779;DHT22;9518;51.720;14.384;2023-02-28T16:21:36;2.80;1.00
18779;DHT22;9518;51.720;14.384;2023-02-28T16:24:04;2.60;1.00
18779;DHT22;9518;51.720;14.384;2023-02-28T16:26:32;2.40;1.00
18779;DHT22;9518;51.720;14.384;2023-02-28T16:29:01;2.20;1.00
18779;DHT22;9518;51.720;14.384;2023-02-28T16:31:28;2.00;1.00
18779;DHT22;9518;51.720;14.384;2023-02-28T16:33:55;1.70;1.00
18779;DHT22;9518;51.720;14.384;2023-02-28T16:36:23;1.50;1.00
18779;DHT22;9518;51.720;14.384;2023-02-28T16:38:51;1.40;1.00
18779;DHT22;9518;51.720;14.384;2023-02-28T16:41:21;1.20;1.00
18779;DHT22;9518;51.720;14.384;2023-02-28T16:43:51;1.00;1.00